createdAt,value
2018-10-06T00:01:46.830Z,17.10
2018-10-06T00:04:15.258Z,16.60
2018-10-06T00:06:43.783Z,17.42
2018-10-06T00:09:12.257Z,17.05
2018-10-06T00:11:41.012Z,17.40
2018-10-06T00:14:09.398Z,16.95
2018-10-06T00:16:37.902Z,17.48
2018-10-06T00:19:06.453Z,16.50
2018-10-06T00:21:34.842Z,17.23
2018-10-06T00:24:03.386Z,17.10
2018-10-06T00:26:31.979Z,17.82
2018-10-06T00:29:00.431Z,16.97
2018-10-06T00:31:28.859Z,15.70
2018-10-06T00:33:57.319Z,17.02
2018-10-06T00:36:25.738Z,16.80
2018-10-06T00:38:54.191Z,15.60
2018-10-06T00:41:22.623Z,17.07
2018-10-06T00:43:51.222Z,17.42
2018-10-06T00:46:19.728Z,16.35
2018-10-06T00:48:48.115Z,17.57
2018-10-06T00:51:16.606Z,17.17
2018-10-06T00:53:45.031Z,16.75
2018-10-06T00:56:14.750Z,16.70
2018-10-06T00:58:43.213Z,16.57
2018-10-06T01:01:11.642Z,17.12
2018-10-06T01:03:40.129Z,16.85
2018-10-06T01:06:08.554Z,19.00
2018-10-06T01:08:37.035Z,16.87
2018-10-06T01:11:05.479Z,16.87
2018-10-06T01:13:33.891Z,17.00
2018-10-06T01:16:02.347Z,17.02
2018-10-06T01:18:30.774Z,17.25
2018-10-06T01:20:59.183Z,16.32
2018-10-06T01:23:27.623Z,16.77
2018-10-06T01:25:56.044Z,16.48
2018-10-06T01:28:24.695Z,15.68
2018-10-06T01:30:53.131Z,17.55
2018-10-06T01:33:21.525Z,17.02
2018-10-06T01:35:49.990Z,16.93
2018-10-06T01:38:18.475Z,17.77
2018-10-06T01:40:46.903Z,17.10
2018-10-06T01:43:15.319Z,16.82
2018-10-06T01:45:43.813Z,16.87
2018-10-06T01:48:12.190Z,16.77
2018-10-06T01:50:41.276Z,16.93
2018-10-06T01:53:09.723Z,17.50
2018-10-06T01:55:38.159Z,16.30
2018-10-06T01:58:06.588Z,16.52
2018-10-06T02:00:35.062Z,17.20
2018-10-06T02:03:03.558Z,16.35
2018-10-06T02:05:32.002Z,17.52
2018-10-06T02:08:00.490Z,18.02
2018-10-06T02:10:28.894Z,18.12
2018-10-06T02:12:57.323Z,17.15
2018-10-06T02:15:26.434Z,17.07
2018-10-06T02:17:54.926Z,16.42
2018-10-06T02:20:23.358Z,17.57
2018-10-06T02:22:51.775Z,16.52
2018-10-06T02:25:20.399Z,17.65
2018-10-06T02:27:48.826Z,16.62
2018-10-06T02:30:17.320Z,16.75
2018-10-06T02:32:45.738Z,16.15
2018-10-06T02:35:14.294Z,16.62
2018-10-06T02:37:42.843Z,17.52
2018-10-06T02:40:11.299Z,16.73
2018-10-06T02:42:39.712Z,17.65
2018-10-06T02:45:09.166Z,17.12
2018-10-06T02:47:37.695Z,17.75
2018-10-06T02:50:06.127Z,16.95
2018-10-06T02:52:34.654Z,18.17
2018-10-06T02:55:03.290Z,17.52
2018-10-06T02:57:31.778Z,16.40
2018-10-06T03:00:00.242Z,16.17
2018-10-06T03:02:28.662Z,16.95
2018-10-06T03:04:57.172Z,16.60
2018-10-06T03:07:25.659Z,16.82
2018-10-06T03:09:54.082Z,17.27
2018-10-06T03:12:23.216Z,16.93
2018-10-06T03:14:51.695Z,16.45
2018-10-06T03:17:20.114Z,16.52
2018-10-06T03:19:48.672Z,16.15
2018-10-06T03:22:17.093Z,17.70
2018-10-06T03:24:45.471Z,17.05
2018-10-06T03:27:13.938Z,17.73
2018-10-06T03:29:43.106Z,18.10
2018-10-06T03:32:11.494Z,16.97
2018-10-06T03:34:39.955Z,17.70
2018-10-06T03:37:08.400Z,17.48
2018-10-06T03:39:36.848Z,15.83
2018-10-06T03:42:05.335Z,17.23
2018-10-06T03:44:33.758Z,16.52
2018-10-06T03:47:02.151Z,16.95
2018-10-06T03:49:30.643Z,16.00
2018-10-06T03:51:59.048Z,17.45
2018-10-06T03:54:27.466Z,17.07
2018-10-06T03:56:55.884Z,17.92
2018-10-06T03:59:24.365Z,17.25
2018-10-06T04:01:52.843Z,16.90
2018-10-06T04:04:21.243Z,17.25
2018-10-06T04:06:50.542Z,17.00
2018-10-06T04:09:18.978Z,16.15
2018-10-06T04:11:47.400Z,17.30
2018-10-06T04:14:15.786Z,16.30
2018-10-06T04:16:44.313Z,18.80
2018-10-06T04:19:12.704Z,16.70
2018-10-06T04:21:46.907Z,16.27
2018-10-06T04:24:16.141Z,17.25
2018-10-06T04:26:44.573Z,18.52
2018-10-06T04:29:13.096Z,19.55
2018-10-06T04:31:41.595Z,17.87
2018-10-06T04:34:10.447Z,18.37
2018-10-06T04:36:38.925Z,18.90
2018-10-06T04:39:10.014Z,17.30
2018-10-06T04:41:39.146Z,17.98
2018-10-06T04:44:08.555Z,17.35
2018-10-06T04:46:36.994Z,18.80
2018-10-06T04:49:05.522Z,18.07
2018-10-06T04:51:33.907Z,18.00
2018-10-06T04:54:02.419Z,18.25
2018-10-06T04:56:30.863Z,17.42
2018-10-06T04:58:59.294Z,17.92
2018-10-06T05:01:27.674Z,17.62
2018-10-06T05:03:56.062Z,17.85
2018-10-06T05:06:24.516Z,17.23
2018-10-06T05:08:52.897Z,18.40
2018-10-06T05:11:21.379Z,18.70
2018-10-06T05:13:49.793Z,17.70
2018-10-06T05:16:18.223Z,17.75
2018-10-06T05:18:46.680Z,17.15
2018-10-06T05:21:15.130Z,18.00
2018-10-06T05:23:44.611Z,17.27
2018-10-06T05:26:13.029Z,17.00
2018-10-06T05:28:41.459Z,17.80
2018-10-06T05:31:09.883Z,17.85
2018-10-06T05:33:38.390Z,17.32
2018-10-06T05:36:06.898Z,17.20
2018-10-06T05:38:35.346Z,17.50
2018-10-06T05:41:03.834Z,17.05
2018-10-06T05:43:32.255Z,16.65
2018-10-06T05:46:00.676Z,17.62
2018-10-06T05:48:29.167Z,17.23
2018-10-06T05:50:57.620Z,21.68
2018-10-06T05:53:26.055Z,19.52
2018-10-06T05:55:54.427Z,17.27
2018-10-06T05:58:22.879Z,17.67
2018-10-06T06:00:51.338Z,16.70
2018-10-06T06:03:19.780Z,17.48
2018-10-06T06:05:48.740Z,16.23
2018-10-06T06:08:17.189Z,18.15
2018-10-06T06:10:46.181Z,18.92
2018-10-06T06:13:14.689Z,17.50
2018-10-06T06:15:43.344Z,17.20
2018-10-06T06:18:11.671Z,17.15
2018-10-06T06:20:40.098Z,17.60
2018-10-06T06:23:09.262Z,17.77
2018-10-06T06:25:37.669Z,18.30
2018-10-06T06:28:06.685Z,17.20
2018-10-06T06:30:35.136Z,17.87
2018-10-06T06:33:03.658Z,18.07
2018-10-06T06:35:32.220Z,17.27
2018-10-06T06:38:00.664Z,17.55
2018-10-06T06:40:29.143Z,17.87
2018-10-06T06:42:57.563Z,18.25
2018-10-06T06:45:27.171Z,18.00
2018-10-06T06:47:55.652Z,17.73
2018-10-06T06:50:24.139Z,17.32
2018-10-06T06:52:52.791Z,18.42
2018-10-06T06:55:21.321Z,19.67
2018-10-06T06:57:49.873Z,17.95
2018-10-06T07:00:18.378Z,17.17
2018-10-06T07:02:46.899Z,18.27
2018-10-06T07:05:15.979Z,18.55
2018-10-06T07:07:44.444Z,18.52
2018-10-06T07:10:12.919Z,18.92
2018-10-06T07:12:41.557Z,17.98
2018-10-06T07:15:10.063Z,18.65
2018-10-06T07:17:38.512Z,19.20
2018-10-06T07:20:07.067Z,18.75
2018-10-06T07:22:35.679Z,19.25
2018-10-06T07:25:04.219Z,19.07
2018-10-06T07:27:32.740Z,18.52
2018-10-06T07:30:01.294Z,19.52
2018-10-06T07:32:29.788Z,18.95
2018-10-06T07:34:58.251Z,21.42
2018-10-06T07:37:26.812Z,20.70
2018-10-06T07:39:55.314Z,18.98
2018-10-06T07:42:23.857Z,18.80
2018-10-06T07:44:52.394Z,18.67
2018-10-06T07:47:21.647Z,20.80
2018-10-06T07:49:50.167Z,19.52
2018-10-06T07:52:18.676Z,19.62
2018-10-06T07:54:47.171Z,20.00
2018-10-06T07:57:15.714Z,19.27
2018-10-06T07:59:44.158Z,19.45
2018-10-06T08:02:12.836Z,20.62
2018-10-06T08:04:41.279Z,19.35
2018-10-06T08:07:09.807Z,18.27
2018-10-06T08:09:38.297Z,18.00
2018-10-06T08:12:07.149Z,17.98
2018-10-06T08:14:35.685Z,21.07
2018-10-06T08:17:04.257Z,23.85
2018-10-06T08:19:32.816Z,20.97
2018-10-06T08:22:01.412Z,19.87
2018-10-06T08:24:29.923Z,19.50
2018-10-06T08:26:58.533Z,18.57
2018-10-06T08:29:27.004Z,17.77
2018-10-06T08:31:55.547Z,19.45
2018-10-06T08:34:24.034Z,20.15
2018-10-06T08:36:52.536Z,18.85
2018-10-06T08:39:21.075Z,19.42
2018-10-06T08:41:49.517Z,20.88
2018-10-06T08:44:18.031Z,18.60
2018-10-06T08:46:46.538Z,20.57
2018-10-06T08:49:15.108Z,18.57
2018-10-06T08:51:43.606Z,19.90
2018-10-06T08:54:12.727Z,18.92
2018-10-06T08:56:41.289Z,22.17
2018-10-06T08:59:09.818Z,18.02
2018-10-06T09:01:38.401Z,19.02
2018-10-06T09:04:07.040Z,20.62
2018-10-06T09:06:35.561Z,21.52
2018-10-06T09:09:05.190Z,19.98
2018-10-06T09:11:33.777Z,19.98
2018-10-06T09:14:02.203Z,17.87
2018-10-06T09:16:30.763Z,19.23
2018-10-06T09:18:59.226Z,18.32
2018-10-06T09:21:27.715Z,19.30
2018-10-06T09:23:56.164Z,18.25
2018-10-06T09:26:24.713Z,16.77
2018-10-06T09:28:53.171Z,17.87
2018-10-06T09:31:21.666Z,18.70
2018-10-06T09:33:50.175Z,18.95
2018-10-06T09:36:18.647Z,17.75
2018-10-06T09:38:47.156Z,18.57
2018-10-06T09:41:15.687Z,19.17
2018-10-06T09:43:44.279Z,18.30
2018-10-06T09:46:12.782Z,19.32
2018-10-06T09:48:41.310Z,17.70
2018-10-06T09:51:09.871Z,19.90
2018-10-06T09:53:38.415Z,19.10
2018-10-06T09:56:07.130Z,18.87
2018-10-06T09:58:35.756Z,18.73
2018-10-06T10:02:10.238Z,17.10
2018-10-06T10:04:39.049Z,18.05
2018-10-06T10:07:07.541Z,17.48
2018-10-06T10:09:36.237Z,18.35
2018-10-06T10:12:04.784Z,17.65
2018-10-06T10:14:33.270Z,16.32
2018-10-06T10:17:01.848Z,18.40
2018-10-06T10:19:30.359Z,17.20
2018-10-06T10:21:59.514Z,21.12
2018-10-06T10:24:27.967Z,19.32
2018-10-06T10:26:56.770Z,17.73
2018-10-06T10:29:25.995Z,19.12
2018-10-06T10:31:54.685Z,19.20
2018-10-06T10:34:23.444Z,18.70
2018-10-06T10:36:52.416Z,18.05
2018-10-06T10:39:21.621Z,19.85
2018-10-06T10:41:50.779Z,18.62
2018-10-06T10:44:19.398Z,18.32
2018-10-06T10:46:48.234Z,19.55
2018-10-06T10:49:17.823Z,19.75
2018-10-06T10:51:46.509Z,28.60
2018-10-06T10:54:15.370Z,19.17
2018-10-06T10:56:43.880Z,36.30
2018-10-06T10:59:12.454Z,20.30
2018-10-06T11:01:41.612Z,19.23
2018-10-06T11:04:10.518Z,18.52
2018-10-06T11:06:39.146Z,18.82
2018-10-06T11:09:08.813Z,18.73
2018-10-06T11:11:37.523Z,19.17
2018-10-06T11:14:06.110Z,18.45
2018-10-06T11:16:34.752Z,18.40
2018-10-06T11:19:03.757Z,19.15
2018-10-06T11:21:32.268Z,19.52
2018-10-06T11:24:00.940Z,18.90
2018-10-06T11:26:30.414Z,18.80
2018-10-06T11:28:59.640Z,18.12
2018-10-06T11:31:28.828Z,18.15
2018-10-06T11:33:57.651Z,18.77
2018-10-06T11:36:26.239Z,19.07
2018-10-06T11:38:54.764Z,19.42
2018-10-06T11:41:23.257Z,19.65
2018-10-06T11:43:51.747Z,19.15
2018-10-06T11:46:20.255Z,19.35
2018-10-06T11:48:48.821Z,18.60
2018-10-06T11:51:17.357Z,20.60
2018-10-06T11:53:45.838Z,18.80
2018-10-06T11:56:14.480Z,19.42
2018-10-06T11:58:43.112Z,19.75
2018-10-06T12:01:11.642Z,19.05
2018-10-06T12:03:40.821Z,18.02
2018-10-06T12:06:09.684Z,20.90
2018-10-06T12:08:38.250Z,21.33
2018-10-06T12:11:07.246Z,18.40
2018-10-06T12:13:36.670Z,20.62
2018-10-06T12:16:06.359Z,18.67
2018-10-06T12:18:36.216Z,18.07
2018-10-06T12:21:04.726Z,18.42
2018-10-06T12:23:33.231Z,17.05
2018-10-06T12:26:01.865Z,17.92
2018-10-06T12:28:30.303Z,16.73
2018-10-06T12:30:58.850Z,18.35
2018-10-06T12:33:27.302Z,17.62
2018-10-06T12:35:55.772Z,17.80
2018-10-06T12:38:24.852Z,16.95
2018-10-06T12:40:53.310Z,16.45
2018-10-06T12:43:21.850Z,17.10
2018-10-06T12:45:50.479Z,18.15
2018-10-06T12:48:19.023Z,17.60
2018-10-06T12:50:47.556Z,16.80
2018-10-06T12:53:16.041Z,18.75
2018-10-06T12:55:44.675Z,16.73
2018-10-06T12:58:13.192Z,17.95
2018-10-06T13:00:41.719Z,18.30
2018-10-06T13:03:10.268Z,18.45
2018-10-06T13:05:39.623Z,16.60
2018-10-06T13:08:08.145Z,18.98
2018-10-06T13:10:36.724Z,18.25
2018-10-06T13:13:05.423Z,19.80
2018-10-06T13:18:17.968Z,19.07
2018-10-06T13:20:46.503Z,18.95
2018-10-06T13:23:14.966Z,19.55
2018-10-06T13:25:43.456Z,19.70
2018-10-06T13:28:12.041Z,18.50
2018-10-06T13:30:40.649Z,18.95
2018-10-06T13:33:09.216Z,19.82
2018-10-06T13:35:37.792Z,19.07
2018-10-06T13:38:06.299Z,18.50
2018-10-06T13:40:34.810Z,19.17
2018-10-06T13:43:03.332Z,19.82
2018-10-06T13:45:31.900Z,20.40
2018-10-06T13:48:00.423Z,19.75
2018-10-06T13:50:28.892Z,20.05
2018-10-06T13:52:57.484Z,19.67
2018-10-06T13:55:26.290Z,19.17
2018-10-06T13:57:54.859Z,17.60
2018-10-06T14:00:24.465Z,18.12
2018-10-06T14:02:53.051Z,18.90
2018-10-06T14:05:21.613Z,19.82
2018-10-06T14:07:50.213Z,18.92
2018-10-06T14:10:18.768Z,18.90
2018-10-06T14:12:47.526Z,18.35
2018-10-06T14:15:16.182Z,20.12
2018-10-06T14:17:44.893Z,20.23
2018-10-06T14:20:13.421Z,19.02
2018-10-06T14:22:42.545Z,19.62
2018-10-06T14:25:11.290Z,19.02
2018-10-06T14:27:39.786Z,18.85
2018-10-06T14:30:08.392Z,19.70
2018-10-06T14:32:37.023Z,18.57
2018-10-06T14:35:05.469Z,18.30
2018-10-06T14:37:34.058Z,19.23
2018-10-06T14:40:02.651Z,18.50
2018-10-06T14:42:31.164Z,17.87
2018-10-06T14:44:59.703Z,19.32
2018-10-06T14:47:28.310Z,22.27
2018-10-06T14:49:56.922Z,17.95
2018-10-06T14:52:25.371Z,18.02
2018-10-06T14:54:53.935Z,19.00
2018-10-06T14:57:22.480Z,19.15
2018-10-06T14:59:50.957Z,18.95
2018-10-06T15:02:19.472Z,19.60
2018-10-06T15:04:48.095Z,18.57
2018-10-06T15:07:16.765Z,17.23
2018-10-06T15:09:45.337Z,18.87
2018-10-06T15:12:13.805Z,18.50
2018-10-06T15:14:42.388Z,17.27
2018-10-06T15:17:10.936Z,18.07
2018-10-06T15:19:39.396Z,19.23
2018-10-06T15:22:08.090Z,18.52
2018-10-06T15:24:36.554Z,21.75
2018-10-06T15:27:05.057Z,17.32
2018-10-06T15:29:33.556Z,19.27
2018-10-06T15:32:02.098Z,18.40
2018-10-06T15:34:30.589Z,19.35
2018-10-06T15:36:59.757Z,19.12
2018-10-06T15:39:28.295Z,18.77
2018-10-06T15:41:56.835Z,19.30
2018-10-06T15:44:25.322Z,17.75
2018-10-06T15:46:53.942Z,19.32
2018-10-06T15:49:22.484Z,17.23
2018-10-06T15:51:51.007Z,18.48
2018-10-06T15:54:19.491Z,19.60
2018-10-06T15:56:48.078Z,19.40
2018-10-06T15:59:16.478Z,18.55
2018-10-06T16:01:45.600Z,19.20
2018-10-06T16:04:14.130Z,18.85
2018-10-06T16:06:42.676Z,20.40
2018-10-06T16:09:11.149Z,18.65
2018-10-06T16:11:39.670Z,19.70
2018-10-06T16:14:08.356Z,18.00
2018-10-06T16:16:37.614Z,18.92
2018-10-06T16:19:06.363Z,18.30
2018-10-06T16:21:34.985Z,18.07
2018-10-06T16:24:03.476Z,18.85
2018-10-06T16:26:31.973Z,17.95
2018-10-06T16:29:00.508Z,19.75
2018-10-06T16:31:29.019Z,18.65
2018-10-06T16:33:58.025Z,17.48
2018-10-06T16:36:26.534Z,18.65
2018-10-06T16:38:55.087Z,17.70
2018-10-06T16:41:23.779Z,18.77
2018-10-06T16:43:52.214Z,18.15
2018-10-06T16:46:21.270Z,18.10
2018-10-06T16:48:49.827Z,19.77
2018-10-06T16:51:18.383Z,19.92
2018-10-06T16:53:46.971Z,16.60
2018-10-06T16:56:15.587Z,15.90
2018-10-06T16:58:44.097Z,17.42
2018-10-06T17:01:12.647Z,17.02
2018-10-06T17:03:41.170Z,15.20
2018-10-06T17:06:09.777Z,16.93
2018-10-06T17:08:38.268Z,18.20
2018-10-06T17:11:06.801Z,17.75
2018-10-06T17:13:35.349Z,17.10
2018-10-06T17:16:03.962Z,16.75
2018-10-06T17:18:32.523Z,16.75
2018-10-06T17:21:00.935Z,21.52
2018-10-06T17:23:29.498Z,18.42
2018-10-06T17:25:58.063Z,16.85
2018-10-06T17:28:26.625Z,17.27
2018-10-06T17:30:55.320Z,16.82
2018-10-06T17:33:23.894Z,15.90
2018-10-06T17:35:53.070Z,17.57
2018-10-06T17:38:22.308Z,17.67
2018-10-06T17:40:50.841Z,18.50
2018-10-06T17:43:19.450Z,17.67
2018-10-06T17:45:48.012Z,17.12
2018-10-06T17:48:16.558Z,17.12
2018-10-06T17:50:45.222Z,16.85
2018-10-06T17:53:13.574Z,17.15
2018-10-06T17:55:42.243Z,17.30
2018-10-06T17:58:10.855Z,18.02
2018-10-06T18:00:39.427Z,18.27
2018-10-06T18:03:08.020Z,15.63
2018-10-06T18:05:36.638Z,16.17
2018-10-06T18:08:05.183Z,17.65
2018-10-06T18:10:33.765Z,17.15
2018-10-06T18:13:02.443Z,16.52
2018-10-06T18:15:30.967Z,18.25
2018-10-06T18:17:59.489Z,18.05
2018-10-06T18:20:28.245Z,16.23
2018-10-06T18:22:56.737Z,17.77
2018-10-06T18:25:25.347Z,17.50
2018-10-06T18:27:54.025Z,16.50
2018-10-06T18:30:22.670Z,16.80
2018-10-06T18:32:51.287Z,16.80
2018-10-06T18:35:19.831Z,16.95
2018-10-06T18:37:48.391Z,16.55
2018-10-06T18:40:17.063Z,17.17
2018-10-06T18:42:45.736Z,16.60
2018-10-06T18:45:14.425Z,16.73
2018-10-06T18:47:43.042Z,16.67
2018-10-06T18:50:11.988Z,15.48
2018-10-06T18:52:40.585Z,17.57
2018-10-06T18:55:09.477Z,16.05
2018-10-06T18:57:38.221Z,15.90
2018-10-06T19:00:07.437Z,17.77
2018-10-06T19:02:36.038Z,17.07
2018-10-06T19:05:04.794Z,16.97
2018-10-06T19:07:33.397Z,17.02
2018-10-06T19:10:02.083Z,16.12
2018-10-06T19:12:30.626Z,15.83
2018-10-06T19:14:59.275Z,16.60
2018-10-06T19:17:27.920Z,16.67
2018-10-06T19:19:56.654Z,17.15
2018-10-06T19:22:25.433Z,15.75
2018-10-06T19:24:53.962Z,15.95
2018-10-06T19:27:22.595Z,17.17
2018-10-06T19:29:51.168Z,16.48
2018-10-06T19:32:20.026Z,17.02
2018-10-06T19:34:48.750Z,17.35
2018-10-06T19:37:17.361Z,17.32
2018-10-06T19:39:46.025Z,16.95
2018-10-06T19:42:14.772Z,16.73
2018-10-06T19:44:43.481Z,17.60
2018-10-06T19:47:12.153Z,17.70
2018-10-06T19:49:40.850Z,17.15
2018-10-06T19:52:09.548Z,16.30
2018-10-06T19:54:38.241Z,16.37
2018-10-06T19:57:06.821Z,17.00
2018-10-06T19:59:35.503Z,18.42
2018-10-06T20:02:04.765Z,17.50
2018-10-06T20:04:33.334Z,15.72
2018-10-06T20:07:02.218Z,17.75
2018-10-06T20:09:31.102Z,17.48
2018-10-06T20:11:59.660Z,16.65
2018-10-06T20:14:28.350Z,16.85
2018-10-06T20:16:56.920Z,16.87
2018-10-06T20:19:25.541Z,15.60
2018-10-06T20:21:54.156Z,16.95
2018-10-06T20:24:22.718Z,17.98
2018-10-06T20:26:51.275Z,18.80
2018-10-06T20:29:19.997Z,16.23
2018-10-06T20:31:48.761Z,16.20
2018-10-06T20:34:17.320Z,18.27
2018-10-06T20:36:46.021Z,19.23
2018-10-06T20:39:14.581Z,18.35
2018-10-06T20:41:43.157Z,17.45
2018-10-06T20:44:12.498Z,18.60
2018-10-06T20:46:41.181Z,18.77
2018-10-06T20:49:09.875Z,19.27
2018-10-06T20:51:38.482Z,16.50
2018-10-06T20:54:07.242Z,17.07
2018-10-06T20:56:35.803Z,17.65
2018-10-06T20:59:04.451Z,17.35
2018-10-06T21:01:33.234Z,17.17
2018-10-06T21:04:01.713Z,16.60
2018-10-06T21:06:30.412Z,16.62
2018-10-06T21:08:59.031Z,16.97
2018-10-06T21:11:27.563Z,17.85
2018-10-06T21:13:56.800Z,19.67
2018-10-06T21:16:25.328Z,17.87
2018-10-06T21:18:53.891Z,17.05
2018-10-06T21:21:22.524Z,17.77
2018-10-06T21:23:51.302Z,17.27
2018-10-06T21:26:19.839Z,17.70
2018-10-06T21:28:49.310Z,18.55
2018-10-06T21:31:18.621Z,16.55
2018-10-06T21:33:47.051Z,16.40
2018-10-06T21:36:15.607Z,16.10
2018-10-06T21:38:44.191Z,16.42
2018-10-06T21:41:12.713Z,15.40
2018-10-06T21:43:41.250Z,17.17
2018-10-06T21:46:09.864Z,16.62
2018-10-06T21:48:38.458Z,17.85
2018-10-06T21:51:06.980Z,15.80
2018-10-06T21:53:35.484Z,16.75
2018-10-06T21:56:04.750Z,17.02
2018-10-06T21:58:33.248Z,17.30
2018-10-06T22:01:06.923Z,17.15
2018-10-06T22:03:35.441Z,16.82
2018-10-06T22:06:04.175Z,16.55
2018-10-06T22:08:32.667Z,16.85
2018-10-06T22:11:01.167Z,16.15
2018-10-06T22:13:30.591Z,15.40
2018-10-06T22:15:59.179Z,16.95
2018-10-06T22:18:28.096Z,17.25
2018-10-06T22:20:56.828Z,17.20
2018-10-06T22:23:25.675Z,15.95
2018-10-06T22:25:54.160Z,16.73
2018-10-06T22:28:22.754Z,16.42
2018-10-06T22:30:51.381Z,16.20
2018-10-06T22:33:19.872Z,17.52
2018-10-06T22:35:49.034Z,17.37
2018-10-06T22:38:17.517Z,17.12
2018-10-06T22:40:46.255Z,18.07
2018-10-06T22:43:14.749Z,16.65
2018-10-06T22:45:43.280Z,17.27
2018-10-06T22:48:12.450Z,17.82
2018-10-06T22:50:40.911Z,16.07
2018-10-06T22:53:09.433Z,16.57
2018-10-06T22:55:37.960Z,18.77
2018-10-06T22:58:06.401Z,18.98
2018-10-06T23:00:35.007Z,20.48
2018-10-06T23:03:03.614Z,19.00
2018-10-06T23:05:32.028Z,20.25
2018-10-06T23:08:00.538Z,20.72
2018-10-06T23:10:29.051Z,22.25
2018-10-06T23:12:57.622Z,21.35
2018-10-06T23:15:26.075Z,21.02
2018-10-06T23:17:54.606Z,21.65
2018-10-06T23:20:23.027Z,22.10
2018-10-06T23:22:51.610Z,22.80
2018-10-06T23:25:20.107Z,22.02
2018-10-06T23:27:49.272Z,21.93
2018-10-06T23:30:17.712Z,22.17
2018-10-06T23:32:46.199Z,23.98
2018-10-06T23:35:14.675Z,24.72
2018-10-06T23:37:43.190Z,25.10
2018-10-06T23:40:12.419Z,26.00
2018-10-06T23:42:41.822Z,24.45
2018-10-06T23:45:10.407Z,24.25
2018-10-06T23:47:38.878Z,23.85
2018-10-06T23:50:07.479Z,25.40
2018-10-06T23:52:36.118Z,26.82
2018-10-06T23:55:04.839Z,26.10
2018-10-06T23:57:33.579Z,26.52
